Island Adventure — WDG9106 — position and weather

sailwx.info

Track history (hours):
 
Tides and Currents Weather Stations Pressure Air Temp Water Temp Dewpoint Dewpoint Depression Visibility Wind Speed Wind Dir Waves Ship Positions

Island Adventure

Owner: Superboat Inc, Ventura, CA. More information available from US FCC via Universal Licensing System and Coast Guard Vessel Documentation Center.

Last reported at 2017-Sep-25 15:00 UTC. Time now 2017-Sep-25 15:10 UTC.
Position N 34°15' W 119°16'.

Length 20 m; draft 2.4 m.

Type: Passenger vessel. MMSI: 366899260.

Date/timePositionNaut miles runAvg speedWind from/ knotsBaromVisibWave heightAir tempDewpointWater temp
2017-Sep-25 15:00N 34°15' W 119°16'0 0.0
2017-Sep-25 14:13N 34°15' W 119°16'0 0.0
2017-Sep-25 14:00N 34°15' W 119°16'0 0.0
2017-Sep-25 13:28N 34°15' W 119°16'0 0.0
2017-Sep-25 13:00N 34°15' W 119°16'0 0.0
2017-Sep-25 12:28N 34°15' W 119°16'0 0.0
2017-Sep-25 12:00N 34°15' W 119°16'0 0.0
2017-Sep-25 11:25N 34°15' W 119°16'0 0.0
2017-Sep-25 10:57N 34°15' W 119°16'0 0.0
2017-Sep-25 10:28N 34°15' W 119°16'0 0.0
2017-Sep-25 10:00N 34°15' W 119°16'0 0.0
2017-Sep-25 09:29N 34°15' W 119°16'0 0.0
2017-Sep-25 09:00N 34°15' W 119°16'0 0.0
2017-Sep-25 08:27N 34°15' W 119°16'0 0.0
2017-Sep-25 07:55N 34°15' W 119°16'0 0.0
2017-Sep-25 07:25N 34°15' W 119°16'0 0.0
2017-Sep-25 06:53N 34°15' W 119°16'0 0.0
2017-Sep-25 06:30N 34°15' W 119°16'0 0.0
2017-Sep-25 05:58N 34°15' W 119°16'0 0.0
2017-Sep-25 05:30N 34°15' W 119°16'0 0.0
2017-Sep-25 04:59N 34°15' W 119°16'0 0.0
2017-Sep-25 04:30N 34°15' W 119°16'0 0.0
2017-Sep-25 04:00N 34°15' W 119°16'0 0.0
2017-Sep-25 03:30N 34°15' W 119°16'0 0.0
2017-Sep-25 02:54N 34°15' W 119°16'0 0.0
2017-Sep-25 02:30N 34°15' W 119°16'0 0.0
2017-Sep-25 02:00N 34°15' W 119°16'0 0.0
2017-Sep-25 01:26N 34°15' W 119°16'0 0.0
2017-Sep-25 00:59N 34°15' W 119°16'0 0.0
2017-Sep-25 00:27N 34°15' W 119°16'0 0.3
2017-Sep-24 23:59N 34°15' W 119°16'815.7
2017-Sep-24 23:30N 34°10' W 119°23'917.4
2017-Sep-24 22:59N 34°04' W 119°32'2 4.2
2017-Sep-24 22:31N 34°03' W 119°33'0 0.7
2017-Sep-24 22:00N 34°03' W 119°33'1019.9
2017-Sep-24 21:30N 34°09' W 119°24'815.4
2017-Sep-24 20:58N 34°15' W 119°16'0 0.1
2017-Sep-24 20:30N 34°15' W 119°16'0 0.0
2017-Sep-24 20:00N 34°15' W 119°16'4 9.0
2017-Sep-24 19:31N 34°12' W 119°20'1020.6
2017-Sep-24 19:00N 34°05' W 119°30'4 7.5
2017-Sep-24 18:30N 34°03' W 119°33'0 0.2
2017-Sep-24 18:00N 34°03' W 119°33'0 0.0
2017-Sep-24 17:30N 34°03' W 119°33'0 0.1
2017-Sep-24 17:00N 34°03' W 119°33'0 0.1
2017-Sep-24 16:30N 34°03' W 119°33'5 9.5
2017-Sep-24 16:00N 34°06' W 119°29'815.2
2017-Sep-24 15:29N 34°11' W 119°21'612.4
2017-Sep-24 15:00N 34°15' W 119°16'0 0.1
2017-Sep-24 14:30N 34°15' W 119°16'0 0.0
2017-Sep-24 13:58N 34°15' W 119°16'0 0.0
2017-Sep-24 13:30N 34°15' W 119°16'0 0.0
2017-Sep-24 12:56N 34°15' W 119°16'0 0.0
2017-Sep-24 12:29N 34°15' W 119°16'0 0.0
2017-Sep-24 11:59N 34°15' W 119°16'0 0.0
2017-Sep-24 11:24N 34°15' W 119°16'0 0.0
2017-Sep-24 10:56N 34°15' W 119°16'0 0.0
2017-Sep-24 10:29N 34°15' W 119°16'0 0.0
2017-Sep-24 09:58N 34°15' W 119°16'0 0.0
2017-Sep-24 09:27N 34°15' W 119°16'0 0.0
2017-Sep-24 09:00N 34°15' W 119°16'0 0.0
2017-Sep-24 08:29N 34°15' W 119°16'0 0.0
2017-Sep-24 07:51N 34°15' W 119°16'0 0.0
2017-Sep-24 07:30N 34°15' W 119°16'0 0.0
2017-Sep-24 06:58N 34°15' W 119°16'0 0.0
2017-Sep-24 06:23N 34°15' W 119°16'0 0.0
2017-Sep-24 06:00N 34°15' W 119°16'0 0.0
2017-Sep-24 05:30N 34°15' W 119°16'0 0.0
2017-Sep-24 04:57N 34°15' W 119°16'0 0.0
2017-Sep-24 04:29N 34°15' W 119°16'0 0.0
2017-Sep-24 03:58N 34°15' W 119°16'0 0.0
2017-Sep-24 03:27N 34°15' W 119°16'0 0.0
2017-Sep-24 03:00N 34°15' W 119°16'0 0.0
2017-Sep-24 02:26N 34°15' W 119°16'0 0.0
2017-Sep-24 01:58N 34°15' W 119°16'0 0.0
2017-Sep-24 01:29N 34°15' W 119°16'0 0.0
2017-Sep-24 00:57N 34°15' W 119°16'0 0.0
2017-Sep-24 00:30N 34°15' W 119°16'3 6.2
2017-Sep-24 00:01N 34°13' W 119°19'917.0
2017-Sep-23 23:30N 34°07' W 119°27'714.0
2017-Sep-23 23:00N 34°03' W 119°33'0 0.0
2017-Sep-23 22:31N 34°03' W 119°33'0 0.1
2017-Sep-23 21:58N 34°03' W 119°33'0 0.0
2017-Sep-23 21:30N 34°03' W 119°33'0 0.0
2017-Sep-23 20:59N 34°03' W 119°33'0 0.1
2017-Sep-23 20:31N 34°03' W 119°33'611.0
2017-Sep-23 20:00N 34°06' W 119°28'13 0.3
2017-Sep-22 01:56N 34°15' W 119°16'0 0.0
2017-Sep-22 01:30N 34°15' W 119°16'0 0.0
2017-Sep-22 01:00N 34°15' W 119°16'0 0.0
2017-Sep-22 00:27N 34°15' W 119°16'0 0.0
2017-Sep-21 23:18N 34°15' W 119°16'0 0.0
2017-Sep-21 22:53N 34°15' W 119°16'0 0.0
2017-Sep-21 22:30N 34°15' W 119°16'0 0.0
2017-Sep-21 21:57N 34°15' W 119°16'0 0.0
2017-Sep-21 21:30N 34°15' W 119°16'0 0.0
2017-Sep-21 21:00N 34°15' W 119°16'0 0.0
2017-Sep-21 20:28N 34°15' W 119°16'0 0.0
2017-Sep-21 20:00N 34°15' W 119°16'0 0.0
2017-Sep-21 19:30N 34°15' W 119°16'0 0.0
2017-Sep-21 18:34N 34°15' W 119°16'0 0.0
2017-Sep-21 18:29N 34°15' W 119°16'0 0.0
2017-Sep-21 17:57N 34°15' W 119°16'0 0.0
2017-Sep-21 17:28N 34°15' W 119°16'0 0.0
2017-Sep-21 17:00N 34°15' W 119°16'0 0.0
2017-Sep-21 16:29N 34°15' W 119°16'0 0.0
2017-Sep-21 16:00N 34°15' W 119°16'0 0.0
2017-Sep-21 15:31N 34°15' W 119°16'0 0.0
2017-Sep-21 15:00N 34°15' W 119°16'0 0.0
2017-Sep-21 14:30N 34°15' W 119°16'0 0.0
2017-Sep-21 14:00N 34°15' W 119°16'0 0.0
2017-Sep-21 13:28N 34°15' W 119°16'0 0.0
2017-Sep-21 13:00N 34°15' W 119°16'0 0.0
2017-Sep-21 12:29N 34°15' W 119°16'0 0.0
2017-Sep-21 12:00N 34°15' W 119°16'0 0.0
2017-Sep-21 11:30N 34°15' W 119°16'0 0.0
2017-Sep-21 10:59N 34°15' W 119°16'0 0.0
2017-Sep-21 10:29N 34°15' W 119°16'0 0.0
2017-Sep-21 09:59N 34°15' W 119°16'0 0.0
2017-Sep-21 09:26N 34°15' W 119°16'0 0.0
2017-Sep-21 09:00N 34°15' W 119°16'0 0.0
2017-Sep-21 08:29N 34°15' W 119°16'0 0.0
2017-Sep-21 07:59N 34°15' W 119°16'0 0.0
2017-Sep-21 07:28N 34°15' W 119°16'0 0.0
2017-Sep-21 06:59N 34°15' W 119°16'0 0.0
2017-Sep-21 06:30N 34°15' W 119°16'0 0.0
2017-Sep-21 06:00N 34°15' W 119°16'0 0.0
2017-Sep-21 05:29N 34°15' W 119°16'0 0.0
2017-Sep-21 05:00N 34°15' W 119°16'0 0.0
2017-Sep-21 04:30N 34°15' W 119°16'0 0.0
2017-Sep-21 04:00N 34°15' W 119°16'0 0.0
2017-Sep-21 03:30N 34°15' W 119°16'0 0.0
2017-Sep-21 03:00N 34°15' W 119°16'0 0.0
2017-Sep-21 02:28N 34°15' W 119°16'0 0.0
2017-Sep-21 01:59N 34°15' W 119°16'0 0.0
2017-Sep-21 01:28N 34°15' W 119°16'0 0.0
2017-Sep-21 00:56N 34°15' W 119°16'0 0.0
2017-Sep-21 00:30N 34°15' W 119°16'813.3
2017-Sep-20 23:56N 34°10' W 119°23'818.2
2017-Sep-20 23:30N 34°05' W 119°31'3 6.5
2017-Sep-20 23:00N 34°03' W 119°33'0 0.0
2017-Sep-20 22:30N 34°03' W 119°33'917.1
2017-Sep-20 21:58N 34°04' W 119°44'612.6
2017-Sep-20 21:30N 34°04' W 119°52'713.3
2017-Sep-20 21:00N 34°02' W 119°59'4 7.0
2017-Sep-20 20:30N 34°00' W 120°03'0 0.8
2017-Sep-20 20:01N 34°00' W 120°02'0 0.7
2017-Sep-20 19:30N 34°01' W 120°02'0 0.6
2017-Sep-20 19:00N 34°00' W 120°03'0 0.1
2017-Sep-20 18:25N 34°01' W 120°03'819.2
2017-Sep-20 18:00N 33°58' W 119°54'1219.2
2017-Sep-20 17:23N 33°58' W 119°40'818.1
2017-Sep-20 16:57N 34°02' W 119°31'2 5.0
2017-Sep-20 16:29N 34°03' W 119°33'511.2
2017-Sep-20 16:00N 34°07' W 119°28'1018.6
2017-Sep-20 15:29N 34°13' W 119°19'3 6.5
2017-Sep-20 14:58N 34°15' W 119°16'0 0.0
2017-Sep-20 14:01N 34°15' W 119°16'0 0.0
2017-Sep-20 13:30N 34°15' W 119°16'0 0.0
2017-Sep-20 13:00N 34°15' W 119°16'0 0.0
2017-Sep-20 12:30N 34°15' W 119°16'0 0.0
2017-Sep-20 12:00N 34°15' W 119°16'0 0.0
2017-Sep-20 11:30N 34°15' W 119°16'0 0.0
2017-Sep-20 11:00N 34°15' W 119°16'0 0.0
2017-Sep-20 10:30N 34°15' W 119°16'0 0.0
2017-Sep-20 10:00N 34°15' W 119°16'0 0.0
2017-Sep-20 09:30N 34°15' W 119°16'0 0.0
2017-Sep-20 08:59N 34°15' W 119°16'0 0.0
2017-Sep-20 08:30N 34°15' W 119°16'0 0.0
2017-Sep-20 07:56N 34°15' W 119°16'0 0.0
2017-Sep-20 07:30N 34°15' W 119°16'0 0.0
2017-Sep-20 07:00N 34°15' W 119°16'0 0.0
2017-Sep-20 06:28N 34°15' W 119°16'0 0.0
2017-Sep-20 05:59N 34°15' W 119°16'0 0.0
2017-Sep-20 05:31N 34°15' W 119°16'0 0.0
2017-Sep-20 05:00N 34°15' W 119°16'0 0.0
2017-Sep-20 04:28N 34°15' W 119°16'0 0.0
2017-Sep-20 03:58N 34°15' W 119°16'0 0.0
2017-Sep-20 03:25N 34°15' W 119°16'0 0.0
2017-Sep-20 03:00N 34°15' W 119°16'0 0.0
2017-Sep-20 02:30N 34°15' W 119°16'0 0.0
2017-Sep-20 02:00N 34°15' W 119°16'0 0.0
2017-Sep-20 01:30N 34°15' W 119°16'0 0.0
2017-Sep-20 01:00N 34°15' W 119°16'0 0.0
2017-Sep-20 00:30N 34°15' W 119°16'2 3.5
2017-Sep-20 00:00N 34°14' W 119°18'917.8
2017-Sep-19 23:30N 34°08' W 119°26'816.0
2017-Sep-19 23:00N 34°03' W 119°33'0 0.0
2017-Sep-19 22:30N 34°03' W 119°33'611.7
2017-Sep-19 22:00N 34°02' W 119°40'2 3.2
2017-Sep-19 21:30N 34°02' W 119°42'0 0.0
2017-Sep-19 21:00N 34°02' W 119°42'0 0.0
2017-Sep-19 20:30N 34°02' W 119°42'0 0.0
2017-Sep-19 20:00N 34°02' W 119°42'1 2.4
2017-Sep-19 19:30N 34°01' W 119°41'0 0.0
2017-Sep-19 19:00N 34°01' W 119°41'0 0.0
2017-Sep-19 18:31N 34°01' W 119°41'3 5.5
2017-Sep-19 18:00N 34°02' W 119°38'4 8.5
2017-Sep-19 17:31N 34°03' W 119°33'713.6
2017-Sep-19 17:00N 34°07' W 119°26'714.5
2017-Sep-19 16:30N 34°12' W 119°20'4 8.5
2017-Sep-19 16:00N 34°15' W 119°16'0 0.0
2017-Sep-19 15:30N 34°15' W 119°16'0 0.0
2017-Sep-19 15:00N 34°15' W 119°16'0 0.0
2017-Sep-19 14:30N 34°15' W 119°16'0 0.0
2017-Sep-19 14:00N 34°15' W 119°16'0 0.0
2017-Sep-19 13:30N 34°15' W 119°16'0 0.0
2017-Sep-19 13:00N 34°15' W 119°16'0 0.0
2017-Sep-19 12:30N 34°15' W 119°16'0 0.0
2017-Sep-19 12:00N 34°15' W 119°16'0 0.0
2017-Sep-19 11:30N 34°15' W 119°16'0 0.0
2017-Sep-19 10:58N 34°15' W 119°16'0 0.0
2017-Sep-19 10:31N 34°15' W 119°16'0 0.0
2017-Sep-19 10:00N 34°15' W 119°16'0 0.0
2017-Sep-19 09:30N 34°15' W 119°16'0 0.0
2017-Sep-19 09:00N 34°15' W 119°16'0 0.0
2017-Sep-19 08:30N 34°15' W 119°16'0 0.0
2017-Sep-19 08:00N 34°15' W 119°16'0 0.0
2017-Sep-19 07:27N 34°15' W 119°16'0 0.0
2017-Sep-19 07:00N 34°15' W 119°16'0 0.0
2017-Sep-19 06:30N 34°15' W 119°16'0 0.0
2017-Sep-19 06:00N 34°15' W 119°16'0 0.0
2017-Sep-19 05:30N 34°15' W 119°16'0 0.0
2017-Sep-19 04:56N 34°15' W 119°16'0 0.0
2017-Sep-19 04:27N 34°15' W 119°16'0 0.0
2017-Sep-19 04:00N 34°15' W 119°16'0 0.0
2017-Sep-19 03:31N 34°15' W 119°16'0 0.0
2017-Sep-19 03:00N 34°15' W 119°16'0 0.0
2017-Sep-19 02:29N 34°15' W 119°16'0 0.0
2017-Sep-19 01:57N 34°15' W 119°16'0 0.0
2017-Sep-19 01:24N 34°15' W 119°16'0 0.0
2017-Sep-19 00:59N 34°15' W 119°16'0 0.0
2017-Sep-19 00:27N 34°15' W 119°16'2 4.8
2017-Sep-19 00:00N 34°13' W 119°18'917.9
2017-Sep-18 23:30N 34°08' W 119°26'815.1
2017-Sep-18 23:00N 34°03' W 119°33'0 0.0
2017-Sep-18 22:30N 34°03' W 119°33'0 0.1
2017-Sep-18 22:00N 34°03' W 119°33'0 0.0
2017-Sep-18 21:30N 34°03' W 119°33'0 0.0
2017-Sep-18 21:00N 34°03' W 119°33'0 0.0
2017-Sep-18 20:29N 34°03' W 119°33'0 0.0
2017-Sep-18 19:59N 34°03' W 119°33'0 0.0
2017-Sep-18 19:30N 34°03' W 119°33'0 0.0
2017-Sep-18 18:59N 34°03' W 119°33'0 0.0
2017-Sep-18 18:27N 34°03' W 119°33'0 0.0
2017-Sep-18 18:00N 34°03' W 119°33'0 0.0
2017-Sep-18 17:30N 34°03' W 119°33'714.6
2017-Sep-18 17:00N 34°08' W 119°27'815.6
2017-Sep-18 16:29N 34°13' W 119°19'3 6.1
2017-Sep-18 15:56N 34°15' W 119°16'0 0.0
2017-Sep-18 15:30N 34°15' W 119°16'0 0.0
2017-Sep-18 15:00N 34°15' W 119°16'0 0.0
2017-Sep-18 14:30N 34°15' W 119°16'0 0.0
2017-Sep-18 14:00N 34°15' W 119°16'0 0.0
2017-Sep-18 13:29N 34°15' W 119°16'0 0.0
2017-Sep-18 12:59N 34°15' W 119°16'0 0.0
2017-Sep-18 12:29N 34°15' W 119°16'0 0.0
2017-Sep-18 12:00N 34°15' W 119°16'0 0.0
2017-Sep-18 11:30N 34°15' W 119°16'0 0.0
2017-Sep-18 11:00N 34°15' W 119°16'0 0.0
2017-Sep-18 10:30N 34°15' W 119°16'0 0.0
2017-Sep-18 10:00N 34°15' W 119°16'0 0.0
2017-Sep-18 09:30N 34°15' W 119°16'0 0.0
2017-Sep-18 09:00N 34°15' W 119°16'0 0.0
2017-Sep-18 08:30N 34°15' W 119°16'0 0.0
2017-Sep-18 08:00N 34°15' W 119°16'0 0.0
2017-Sep-18 07:30N 34°15' W 119°16'0 0.0
2017-Sep-18 07:00N 34°15' W 119°16'0 0.0
2017-Sep-18 06:30N 34°15' W 119°16'0 0.0
2017-Sep-18 06:00N 34°15' W 119°16'0 0.0
2017-Sep-18 05:24N 34°15' W 119°16'0 0.0
2017-Sep-18 05:00N 34°15' W 119°16'0 0.0
2017-Sep-18 04:28N 34°15' W 119°16'0 0.0
2017-Sep-18 04:00N 34°15' W 119°16'0 0.0
2017-Sep-18 03:26N 34°15' W 119°16'0 0.0
2017-Sep-18 02:58N 34°15' W 119°16'0 0.0
2017-Sep-18 02:29N 34°15' W 119°16'0 0.0
2017-Sep-18 02:00N 34°15' W 119°16'0 0.0
2017-Sep-18 01:30N 34°15' W 119°16'0 0.0
2017-Sep-18 01:00N 34°15' W 119°16'0 0.0
2017-Sep-18 00:30N 34°15' W 119°16'1 2.7
2017-Sep-18 00:00N 34°14' W 119°17'917.8
2017-Sep-17 23:30N 34°08' W 119°26'816.7
2017-Sep-17 23:00N 34°03' W 119°33'0 0.1
2017-Sep-17 22:31N 34°03' W 119°33'3 5.8
2017-Sep-17 22:00N 34°05' W 119°30'1020.2
2017-Sep-17 21:30N 34°11' W 119°21'611.1
2017-Sep-17 21:00N 34°15' W 119°16'0 0.0
2017-Sep-17 20:30N 34°15' W 119°16'0 0.3
2017-Sep-17 20:00N 34°15' W 119°16'816.3
2017-Sep-17 19:30N 34°10' W 119°24'1020.2
2017-Sep-17 19:00N 34°03' W 119°33'1 1.2
2017-Sep-17 18:30N 34°03' W 119°33'0 0.1
2017-Sep-17 18:00N 34°03' W 119°33'0 0.0
2017-Sep-17 17:30N 34°03' W 119°33'0 0.1
2017-Sep-17 17:00N 34°03' W 119°33'2 3.8
2017-Sep-17 16:30N 34°04' W 119°31'4 7.5
2017-Sep-17 16:01N 34°07' W 119°29'917.4
2017-Sep-17 15:30N 34°12' W 119°20'4 8.4
2017-Sep-17 15:00N 34°15' W 119°16'0 0.0
2017-Sep-17 14:30N 34°15' W 119°16'0 0.0
2017-Sep-17 14:00N 34°15' W 119°16'0 0.0
2017-Sep-17 13:30N 34°15' W 119°16'0 0.0
2017-Sep-17 13:00N 34°15' W 119°16'0 0.0
2017-Sep-17 12:30N 34°15' W 119°16'0 0.0
2017-Sep-17 12:00N 34°15' W 119°16'0 0.0
2017-Sep-17 11:30N 34°15' W 119°16'0 0.0
2017-Sep-17 11:00N 34°15' W 119°16'0 0.0
2017-Sep-17 10:30N 34°15' W 119°16'0 0.0
2017-Sep-17 10:00N 34°15' W 119°16'0 0.0
2017-Sep-17 09:30N 34°15' W 119°16'0 0.0
2017-Sep-17 09:00N 34°15' W 119°16'0 0.0
2017-Sep-17 08:30N 34°15' W 119°16'0 0.0
2017-Sep-17 08:00N 34°15' W 119°16'0 0.0
2017-Sep-17 07:30N 34°15' W 119°16'0 0.0
2017-Sep-17 07:00N 34°15' W 119°16'0 0.0
2017-Sep-17 06:30N 34°15' W 119°16'0 0.0
2017-Sep-17 06:00N 34°15' W 119°16'0 0.0
2017-Sep-17 05:30N 34°15' W 119°16'0 0.0
2017-Sep-17 05:00N 34°15' W 119°16'0 0.0
2017-Sep-17 04:30N 34°15' W 119°16'0 0.0
2017-Sep-17 04:00N 34°15' W 119°16'0 0.0
2017-Sep-17 03:30N 34°15' W 119°16'0 0.0
2017-Sep-17 03:00N 34°15' W 119°16'0 0.0
2017-Sep-17 02:30N 34°15' W 119°16'0 0.0
2017-Sep-17 02:00N 34°15' W 119°16'0 0.0
2017-Sep-17 01:30N 34°15' W 119°16'1 2.2
2017-Sep-17 01:00N 34°14' W 119°17'816.4
2017-Sep-17 00:30N 34°09' W 119°25'816.8
2017-Sep-17 00:00N 34°04' W 119°32'1 1.9
2017-Sep-16 23:29N 34°03' W 119°33'511.5
2017-Sep-16 23:00N 34°02' W 119°40'1 2.3
2017-Sep-16 22:31N 34°01' W 119°41'510.1
2017-Sep-16 22:00N 34°03' W 119°35'2 3.6
2017-Sep-16 21:30N 34°03' W 119°33'0 0.0
2017-Sep-16 21:00N 34°03' W 119°33'2 3.1
2017-Sep-16 20:30N 34°04' W 119°32'4 8.1
2017-Sep-16 20:00N 34°06' W 119°28'917.7
2017-Sep-16 19:30N 34°12' W 119°20'4 8.3
2017-Sep-16 19:00N 34°15' W 119°16'0 0.0
2017-Sep-16 18:30N 34°15' W 119°16'0 0.5
2017-Sep-16 18:00N 34°14' W 119°16'510.6
2017-Sep-16 17:30N 34°12' W 119°21'1120.8
2017-Sep-16 16:59N 34°05' W 119°31'3 5.3
2017-Sep-16 16:30N 34°03' W 119°33'612.5
2017-Sep-16 16:00N 34°07' W 119°28'1017.8
2017-Sep-16 15:27N 34°13' W 119°18'3 5.6
2017-Sep-16 15:00N 34°15' W 119°16'0 0.0
2017-Sep-16 14:30N 34°15' W 119°16'0 0.0
2017-Sep-16 14:00N 34°15' W 119°16'0 0.0
2017-Sep-16 13:30N 34°15' W 119°16'0 0.0
2017-Sep-16 13:00N 34°15' W 119°16'0 0.0
2017-Sep-16 12:29N 34°15' W 119°16'0 0.0
2017-Sep-16 12:00N 34°15' W 119°16'0 0.0
2017-Sep-16 11:30N 34°15' W 119°16'0 0.0
2017-Sep-16 11:00N 34°15' W 119°16'0 0.0
2017-Sep-16 10:30N 34°15' W 119°16'0 0.0
2017-Sep-16 10:00N 34°15' W 119°16'0 0.0
2017-Sep-16 09:30N 34°15' W 119°16'0 0.0
2017-Sep-16 09:00N 34°15' W 119°16'0 0.0
2017-Sep-16 08:30N 34°15' W 119°16'0 0.0
2017-Sep-16 08:00N 34°15' W 119°16'0 0.0
2017-Sep-16 07:30N 34°15' W 119°16'0 0.0
2017-Sep-16 07:00N 34°15' W 119°16'0 0.0
2017-Sep-16 06:30N 34°15' W 119°16'0 0.0
2017-Sep-16 06:00N 34°15' W 119°16'0 0.0
2017-Sep-16 05:30N 34°15' W 119°16'0 0.0
2017-Sep-16 04:58N 34°15' W 119°16'0 0.0
2017-Sep-16 04:24N 34°15' W 119°16'0 0.0
2017-Sep-16 03:58N 34°15' W 119°16'0 0.0
2017-Sep-16 03:30N 34°15' W 119°16'0 0.0
2017-Sep-16 02:56N 34°15' W 119°16'0 0.0
2017-Sep-16 02:30N 34°15' W 119°16'0 0.0
2017-Sep-16 01:59N 34°15' W 119°16'0 0.0
2017-Sep-16 01:30N 34°15' W 119°16'0 0.0
2017-Sep-16 00:58N 34°15' W 119°16'0 0.0
2017-Sep-16 00:28N 34°15' W 119°16'1 1.3
2017-Sep-16 00:01N 34°15' W 119°17'917.2
2017-Sep-15 23:30N 34°09' W 119°25'917.7
2017-Sep-15 23:00N 34°03' W 119°33'0 0.9
2017-Sep-15 22:30N 34°03' W 119°33'0 0.1
2017-Sep-15 22:01N 34°03' W 119°33'1 2.6
2017-Sep-15 21:27N 34°02' W 119°32'0 0.0
2017-Sep-15 21:00N 34°02' W 119°32'0 0.0
2017-Sep-15 20:30N 34°02' W 119°32'0 0.0
2017-Sep-15 20:00N 34°02' W 119°32'0 0.0
2017-Sep-15 19:30N 34°02' W 119°32'0 0.0
2017-Sep-15 18:59N 34°02' W 119°32'0 0.0
2017-Sep-15 18:28N 34°02' W 119°32'2 3.2
2017-Sep-15 18:00N 34°03' W 119°33'0 0.1
2017-Sep-15 17:30N 34°03' W 119°33'715.1
2017-Sep-15 17:00N 34°07' W 119°26'915.7
2017-Sep-15 16:28N 34°13' W 119°18'3 5.4
2017-Sep-15 15:59N 34°15' W 119°16'0 0.0
2017-Sep-15 15:28N 34°15' W 119°16'  
Track history (hours):
 
Tides and Currents Weather Stations Pressure Air Temp Water Temp Dewpoint Dewpoint Depression Visibility Wind Speed Wind Dir Waves Ship Positions

Island Adventure

Owner: Superboat Inc, Ventura, CA. More information available from US FCC via Universal Licensing System and Coast Guard Vessel Documentation Center.

Last reported at 2017-Sep-25 15:00 UTC. Time now 2017-Sep-25 15:10 UTC.
Position N 34°15' W 119°16'.

Length 20 m; draft 2.4 m.

Type: Passenger vessel. MMSI: 366899260.

Date/timePositionNaut miles runAvg speedWind from/ knotsBaromVisibWave heightAir tempDewpointWater temp
2017-Sep-25 15:00N 34°15' W 119°16'0 0.0
2017-Sep-25 14:13N 34°15' W 119°16'0 0.0
2017-Sep-25 14:00N 34°15' W 119°16'0 0.0
2017-Sep-25 13:28N 34°15' W 119°16'0 0.0
2017-Sep-25 13:00N 34°15' W 119°16'0 0.0
2017-Sep-25 12:28N 34°15' W 119°16'0 0.0
2017-Sep-25 12:00N 34°15' W 119°16'0 0.0
2017-Sep-25 11:25N 34°15' W 119°16'0 0.0
2017-Sep-25 10:57N 34°15' W 119°16'0 0.0
2017-Sep-25 10:28N 34°15' W 119°16'0 0.0
2017-Sep-25 10:00N 34°15' W 119°16'0 0.0
2017-Sep-25 09:29N 34°15' W 119°16'0 0.0
2017-Sep-25 09:00N 34°15' W 119°16'0 0.0
2017-Sep-25 08:27N 34°15' W 119°16'0 0.0
2017-Sep-25 07:55N 34°15' W 119°16'0 0.0
2017-Sep-25 07:25N 34°15' W 119°16'0 0.0
2017-Sep-25 06:53N 34°15' W 119°16'0 0.0
2017-Sep-25 06:30N 34°15' W 119°16'0 0.0
2017-Sep-25 05:58N 34°15' W 119°16'0 0.0
2017-Sep-25 05:30N 34°15' W 119°16'0 0.0
2017-Sep-25 04:59N 34°15' W 119°16'0 0.0
2017-Sep-25 04:30N 34°15' W 119°16'0 0.0
2017-Sep-25 04:00N 34°15' W 119°16'0 0.0
2017-Sep-25 03:30N 34°15' W 119°16'0 0.0
2017-Sep-25 02:54N 34°15' W 119°16'0 0.0
2017-Sep-25 02:30N 34°15' W 119°16'0 0.0
2017-Sep-25 02:00N 34°15' W 119°16'0 0.0
2017-Sep-25 01:26N 34°15' W 119°16'0 0.0
2017-Sep-25 00:59N 34°15' W 119°16'0 0.0
2017-Sep-25 00:27N 34°15' W 119°16'0 0.3
2017-Sep-24 23:59N 34°15' W 119°16'815.7
2017-Sep-24 23:30N 34°10' W 119°23'917.4
2017-Sep-24 22:59N 34°04' W 119°32'2 4.2
2017-Sep-24 22:31N 34°03' W 119°33'0 0.7
2017-Sep-24 22:00N 34°03' W 119°33'1019.9
2017-Sep-24 21:30N 34°09' W 119°24'815.4
2017-Sep-24 20:58N 34°15' W 119°16'0 0.1
2017-Sep-24 20:30N 34°15' W 119°16'0 0.0
2017-Sep-24 20:00N 34°15' W 119°16'4 9.0
2017-Sep-24 19:31N 34°12' W 119°20'1020.6
2017-Sep-24 19:00N 34°05' W 119°30'4 7.5
2017-Sep-24 18:30N 34°03' W 119°33'0 0.2
2017-Sep-24 18:00N 34°03' W 119°33'0 0.0
2017-Sep-24 17:30N 34°03' W 119°33'0 0.1
2017-Sep-24 17:00N 34°03' W 119°33'0 0.1
2017-Sep-24 16:30N 34°03' W 119°33'5 9.5
2017-Sep-24 16:00N 34°06' W 119°29'815.2
2017-Sep-24 15:29N 34°11' W 119°21'612.4
2017-Sep-24 15:00N 34°15' W 119°16'0 0.1
2017-Sep-24 14:30N 34°15' W 119°16'0 0.0
2017-Sep-24 13:58N 34°15' W 119°16'0 0.0
2017-Sep-24 13:30N 34°15' W 119°16'0 0.0
2017-Sep-24 12:56N 34°15' W 119°16'0 0.0
2017-Sep-24 12:29N 34°15' W 119°16'0 0.0
2017-Sep-24 11:59N 34°15' W 119°16'0 0.0
2017-Sep-24 11:24N 34°15' W 119°16'0 0.0
2017-Sep-24 10:56N 34°15' W 119°16'0 0.0
2017-Sep-24 10:29N 34°15' W 119°16'0 0.0
2017-Sep-24 09:58N 34°15' W 119°16'0 0.0
2017-Sep-24 09:27N 34°15' W 119°16'0 0.0
2017-Sep-24 09:00N 34°15' W 119°16'0 0.0
2017-Sep-24 08:29N 34°15' W 119°16'0 0.0
2017-Sep-24 07:51N 34°15' W 119°16'0 0.0
2017-Sep-24 07:30N 34°15' W 119°16'0 0.0
2017-Sep-24 06:58N 34°15' W 119°16'0 0.0
2017-Sep-24 06:23N 34°15' W 119°16'0 0.0
2017-Sep-24 06:00N 34°15' W 119°16'0 0.0
2017-Sep-24 05:30N 34°15' W 119°16'0 0.0
2017-Sep-24 04:57N 34°15' W 119°16'0 0.0
2017-Sep-24 04:29N 34°15' W 119°16'0 0.0
2017-Sep-24 03:58N 34°15' W 119°16'0 0.0
2017-Sep-24 03:27N 34°15' W 119°16'0 0.0
2017-Sep-24 03:00N 34°15' W 119°16'0 0.0
2017-Sep-24 02:26N 34°15' W 119°16'0 0.0
2017-Sep-24 01:58N 34°15' W 119°16'0 0.0
2017-Sep-24 01:29N 34°15' W 119°16'0 0.0
2017-Sep-24 00:57N 34°15' W 119°16'0 0.0
2017-Sep-24 00:30N 34°15' W 119°16'3 6.2
2017-Sep-24 00:01N 34°13' W 119°19'917.0
2017-Sep-23 23:30N 34°07' W 119°27'714.0
2017-Sep-23 23:00N 34°03' W 119°33'0 0.0
2017-Sep-23 22:31N 34°03' W 119°33'0 0.1
2017-Sep-23 21:58N 34°03' W 119°33'0 0.0
2017-Sep-23 21:30N 34°03' W 119°33'0 0.0
2017-Sep-23 20:59N 34°03' W 119°33'0 0.1
2017-Sep-23 20:31N 34°03' W 119°33'611.0
2017-Sep-23 20:00N 34°06' W 119°28'13 0.3
2017-Sep-22 01:56N 34°15' W 119°16'0 0.0
2017-Sep-22 01:30N 34°15' W 119°16'0 0.0
2017-Sep-22 01:00N 34°15' W 119°16'0 0.0
2017-Sep-22 00:27N 34°15' W 119°16'0 0.0
2017-Sep-21 23:18N 34°15' W 119°16'0 0.0
2017-Sep-21 22:53N 34°15' W 119°16'0 0.0
2017-Sep-21 22:30N 34°15' W 119°16'0 0.0
2017-Sep-21 21:57N 34°15' W 119°16'0 0.0
2017-Sep-21 21:30N 34°15' W 119°16'0 0.0
2017-Sep-21 21:00N 34°15' W 119°16'0 0.0
2017-Sep-21 20:28N 34°15' W 119°16'0 0.0
2017-Sep-21 20:00N 34°15' W 119°16'0 0.0
2017-Sep-21 19:30N 34°15' W 119°16'0 0.0
2017-Sep-21 18:34N 34°15' W 119°16'0 0.0
2017-Sep-21 18:29N 34°15' W 119°16'0 0.0
2017-Sep-21 17:57N 34°15' W 119°16'0 0.0
2017-Sep-21 17:28N 34°15' W 119°16'0 0.0
2017-Sep-21 17:00N 34°15' W 119°16'0 0.0
2017-Sep-21 16:29N 34°15' W 119°16'0 0.0
2017-Sep-21 16:00N 34°15' W 119°16'0 0.0
2017-Sep-21 15:31N 34°15' W 119°16'0 0.0
2017-Sep-21 15:00N 34°15' W 119°16'0 0.0
2017-Sep-21 14:30N 34°15' W 119°16'0 0.0
2017-Sep-21 14:00N 34°15' W 119°16'0 0.0
2017-Sep-21 13:28N 34°15' W 119°16'0 0.0
2017-Sep-21 13:00N 34°15' W 119°16'0 0.0
2017-Sep-21 12:29N 34°15' W 119°16'0 0.0
2017-Sep-21 12:00N 34°15' W 119°16'0 0.0
2017-Sep-21 11:30N 34°15' W 119°16'0 0.0
2017-Sep-21 10:59N 34°15' W 119°16'0 0.0
2017-Sep-21 10:29N 34°15' W 119°16'0 0.0
2017-Sep-21 09:59N 34°15' W 119°16'0 0.0
2017-Sep-21 09:26N 34°15' W 119°16'0 0.0
2017-Sep-21 09:00N 34°15' W 119°16'0 0.0
2017-Sep-21 08:29N 34°15' W 119°16'0 0.0
2017-Sep-21 07:59N 34°15' W 119°16'0 0.0
2017-Sep-21 07:28N 34°15' W 119°16'0 0.0
2017-Sep-21 06:59N 34°15' W 119°16'0 0.0
2017-Sep-21 06:30N 34°15' W 119°16'0 0.0
2017-Sep-21 06:00N 34°15' W 119°16'0 0.0
2017-Sep-21 05:29N 34°15' W 119°16'0 0.0
2017-Sep-21 05:00N 34°15' W 119°16'0 0.0
2017-Sep-21 04:30N 34°15' W 119°16'0 0.0
2017-Sep-21 04:00N 34°15' W 119°16'0 0.0
2017-Sep-21 03:30N 34°15' W 119°16'0 0.0
2017-Sep-21 03:00N 34°15' W 119°16'0 0.0
2017-Sep-21 02:28N 34°15' W 119°16'0 0.0
2017-Sep-21 01:59N 34°15' W 119°16'0 0.0
2017-Sep-21 01:28N 34°15' W 119°16'0 0.0
2017-Sep-21 00:56N 34°15' W 119°16'0 0.0
2017-Sep-21 00:30N 34°15' W 119°16'813.3
2017-Sep-20 23:56N 34°10' W 119°23'818.2
2017-Sep-20 23:30N 34°05' W 119°31'3 6.5
2017-Sep-20 23:00N 34°03' W 119°33'0 0.0
2017-Sep-20 22:30N 34°03' W 119°33'917.1
2017-Sep-20 21:58N 34°04' W 119°44'612.6
2017-Sep-20 21:30N 34°04' W 119°52'713.3
2017-Sep-20 21:00N 34°02' W 119°59'4 7.0
2017-Sep-20 20:30N 34°00' W 120°03'0 0.8
2017-Sep-20 20:01N 34°00' W 120°02'0 0.7
2017-Sep-20 19:30N 34°01' W 120°02'0 0.6
2017-Sep-20 19:00N 34°00' W 120°03'0 0.1
2017-Sep-20 18:25N 34°01' W 120°03'819.2
2017-Sep-20 18:00N 33°58' W 119°54'1219.2
2017-Sep-20 17:23N 33°58' W 119°40'818.1
2017-Sep-20 16:57N 34°02' W 119°31'2 5.0
2017-Sep-20 16:29N 34°03' W 119°33'511.2
2017-Sep-20 16:00N 34°07' W 119°28'1018.6
2017-Sep-20 15:29N 34°13' W 119°19'3 6.5
2017-Sep-20 14:58N 34°15' W 119°16'0 0.0
2017-Sep-20 14:01N 34°15' W 119°16'0 0.0
2017-Sep-20 13:30N 34°15' W 119°16'0 0.0
2017-Sep-20 13:00N 34°15' W 119°16'0 0.0
2017-Sep-20 12:30N 34°15' W 119°16'0 0.0
2017-Sep-20 12:00N 34°15' W 119°16'0 0.0
2017-Sep-20 11:30N 34°15' W 119°16'0 0.0
2017-Sep-20 11:00N 34°15' W 119°16'0 0.0
2017-Sep-20 10:30N 34°15' W 119°16'0 0.0
2017-Sep-20 10:00N 34°15' W 119°16'0 0.0
2017-Sep-20 09:30N 34°15' W 119°16'0 0.0
2017-Sep-20 08:59N 34°15' W 119°16'0 0.0
2017-Sep-20 08:30N 34°15' W 119°16'0 0.0
2017-Sep-20 07:56N 34°15' W 119°16'0 0.0
2017-Sep-20 07:30N 34°15' W 119°16'0 0.0
2017-Sep-20 07:00N 34°15' W 119°16'0 0.0
2017-Sep-20 06:28N 34°15' W 119°16'0 0.0
2017-Sep-20 05:59N 34°15' W 119°16'0 0.0
2017-Sep-20 05:31N 34°15' W 119°16'0 0.0
2017-Sep-20 05:00N 34°15' W 119°16'0 0.0
2017-Sep-20 04:28N 34°15' W 119°16'0 0.0
2017-Sep-20 03:58N 34°15' W 119°16'0 0.0
2017-Sep-20 03:25N 34°15' W 119°16'0 0.0
2017-Sep-20 03:00N 34°15' W 119°16'0 0.0
2017-Sep-20 02:30N 34°15' W 119°16'0 0.0
2017-Sep-20 02:00N 34°15' W 119°16'0 0.0
2017-Sep-20 01:30N 34°15' W 119°16'0 0.0
2017-Sep-20 01:00N 34°15' W 119°16'0 0.0
2017-Sep-20 00:30N 34°15' W 119°16'2 3.5
2017-Sep-20 00:00N 34°14' W 119°18'917.8
2017-Sep-19 23:30N 34°08' W 119°26'816.0
2017-Sep-19 23:00N 34°03' W 119°33'0 0.0
2017-Sep-19 22:30N 34°03' W 119°33'611.7
2017-Sep-19 22:00N 34°02' W 119°40'2 3.2
2017-Sep-19 21:30N 34°02' W 119°42'0 0.0
2017-Sep-19 21:00N 34°02' W 119°42'0 0.0
2017-Sep-19 20:30N 34°02' W 119°42'0 0.0
2017-Sep-19 20:00N 34°02' W 119°42'1 2.4
2017-Sep-19 19:30N 34°01' W 119°41'0 0.0
2017-Sep-19 19:00N 34°01' W 119°41'0 0.0
2017-Sep-19 18:31N 34°01' W 119°41'3 5.5
2017-Sep-19 18:00N 34°02' W 119°38'4 8.5
2017-Sep-19 17:31N 34°03' W 119°33'713.6
2017-Sep-19 17:00N 34°07' W 119°26'714.5
2017-Sep-19 16:30N 34°12' W 119°20'4 8.5
2017-Sep-19 16:00N 34°15' W 119°16'0 0.0
2017-Sep-19 15:30N 34°15' W 119°16'0 0.0
2017-Sep-19 15:00N 34°15' W 119°16'0 0.0
2017-Sep-19 14:30N 34°15' W 119°16'0 0.0
2017-Sep-19 14:00N 34°15' W 119°16'0 0.0
2017-Sep-19 13:30N 34°15' W 119°16'0 0.0
2017-Sep-19 13:00N 34°15' W 119°16'0 0.0
2017-Sep-19 12:30N 34°15' W 119°16'0 0.0
2017-Sep-19 12:00N 34°15' W 119°16'0 0.0
2017-Sep-19 11:30N 34°15' W 119°16'0 0.0
2017-Sep-19 10:58N 34°15' W 119°16'0 0.0
2017-Sep-19 10:31N 34°15' W 119°16'0 0.0
2017-Sep-19 10:00N 34°15' W 119°16'0 0.0
2017-Sep-19 09:30N 34°15' W 119°16'0 0.0
2017-Sep-19 09:00N 34°15' W 119°16'0 0.0
2017-Sep-19 08:30N 34°15' W 119°16'0 0.0
2017-Sep-19 08:00N 34°15' W 119°16'0 0.0
2017-Sep-19 07:27N 34°15' W 119°16'0 0.0
2017-Sep-19 07:00N 34°15' W 119°16'0 0.0
2017-Sep-19 06:30N 34°15' W 119°16'0 0.0
2017-Sep-19 06:00N 34°15' W 119°16'0 0.0
2017-Sep-19 05:30N 34°15' W 119°16'0 0.0
2017-Sep-19 04:56N 34°15' W 119°16'0 0.0
2017-Sep-19 04:27N 34°15' W 119°16'0 0.0
2017-Sep-19 04:00N 34°15' W 119°16'0 0.0
2017-Sep-19 03:31N 34°15' W 119°16'0 0.0
2017-Sep-19 03:00N 34°15' W 119°16'0 0.0
2017-Sep-19 02:29N 34°15' W 119°16'0 0.0
2017-Sep-19 01:57N 34°15' W 119°16'0 0.0
2017-Sep-19 01:24N 34°15' W 119°16'0 0.0
2017-Sep-19 00:59N 34°15' W 119°16'0 0.0
2017-Sep-19 00:27N 34°15' W 119°16'2 4.8
2017-Sep-19 00:00N 34°13' W 119°18'917.9
2017-Sep-18 23:30N 34°08' W 119°26'815.1
2017-Sep-18 23:00N 34°03' W 119°33'0 0.0
2017-Sep-18 22:30N 34°03' W 119°33'0 0.1
2017-Sep-18 22:00N 34°03' W 119°33'0 0.0
2017-Sep-18 21:30N 34°03' W 119°33'0 0.0
2017-Sep-18 21:00N 34°03' W 119°33'0 0.0
2017-Sep-18 20:29N 34°03' W 119°33'0 0.0
2017-Sep-18 19:59N 34°03' W 119°33'0 0.0
2017-Sep-18 19:30N 34°03' W 119°33'0 0.0
2017-Sep-18 18:59N 34°03' W 119°33'0 0.0
2017-Sep-18 18:27N 34°03' W 119°33'0 0.0
2017-Sep-18 18:00N 34°03' W 119°33'0 0.0
2017-Sep-18 17:30N 34°03' W 119°33'714.6
2017-Sep-18 17:00N 34°08' W 119°27'815.6
2017-Sep-18 16:29N 34°13' W 119°19'3 6.1
2017-Sep-18 15:56N 34°15' W 119°16'0 0.0
2017-Sep-18 15:30N 34°15' W 119°16'0 0.0
2017-Sep-18 15:00N 34°15' W 119°16'0 0.0
2017-Sep-18 14:30N 34°15' W 119°16'0 0.0
2017-Sep-18 14:00N 34°15' W 119°16'0 0.0
2017-Sep-18 13:29N 34°15' W 119°16'0 0.0
2017-Sep-18 12:59N 34°15' W 119°16'0 0.0
2017-Sep-18 12:29N 34°15' W 119°16'0 0.0
2017-Sep-18 12:00N 34°15' W 119°16'0 0.0
2017-Sep-18 11:30N 34°15' W 119°16'0 0.0
2017-Sep-18 11:00N 34°15' W 119°16'0 0.0
2017-Sep-18 10:30N 34°15' W 119°16'0 0.0
2017-Sep-18 10:00N 34°15' W 119°16'0 0.0
2017-Sep-18 09:30N 34°15' W 119°16'0 0.0
2017-Sep-18 09:00N 34°15' W 119°16'0 0.0
2017-Sep-18 08:30N 34°15' W 119°16'0 0.0
2017-Sep-18 08:00N 34°15' W 119°16'0 0.0
2017-Sep-18 07:30N 34°15' W 119°16'0 0.0
2017-Sep-18 07:00N 34°15' W 119°16'0 0.0
2017-Sep-18 06:30N 34°15' W 119°16'0 0.0
2017-Sep-18 06:00N 34°15' W 119°16'0 0.0
2017-Sep-18 05:24N 34°15' W 119°16'0 0.0
2017-Sep-18 05:00N 34°15' W 119°16'0 0.0
2017-Sep-18 04:28N 34°15' W 119°16'0 0.0
2017-Sep-18 04:00N 34°15' W 119°16'0 0.0
2017-Sep-18 03:26N 34°15' W 119°16'0 0.0
2017-Sep-18 02:58N 34°15' W 119°16'0 0.0
2017-Sep-18 02:29N 34°15' W 119°16'0 0.0
2017-Sep-18 02:00N 34°15' W 119°16'0 0.0
2017-Sep-18 01:30N 34°15' W 119°16'0 0.0
2017-Sep-18 01:00N 34°15' W 119°16'0 0.0
2017-Sep-18 00:30N 34°15' W 119°16'1 2.7
2017-Sep-18 00:00N 34°14' W 119°17'917.8
2017-Sep-17 23:30N 34°08' W 119°26'816.7
2017-Sep-17 23:00N 34°03' W 119°33'0 0.1
2017-Sep-17 22:31N 34°03' W 119°33'3 5.8
2017-Sep-17 22:00N 34°05' W 119°30'1020.2
2017-Sep-17 21:30N 34°11' W 119°21'611.1
2017-Sep-17 21:00N 34°15' W 119°16'0 0.0
2017-Sep-17 20:30N 34°15' W 119°16'0 0.3
2017-Sep-17 20:00N 34°15' W 119°16'816.3
2017-Sep-17 19:30N 34°10' W 119°24'1020.2
2017-Sep-17 19:00N 34°03' W 119°33'1 1.2
2017-Sep-17 18:30N 34°03' W 119°33'0 0.1
2017-Sep-17 18:00N 34°03' W 119°33'0 0.0
2017-Sep-17 17:30N 34°03' W 119°33'0 0.1
2017-Sep-17 17:00N 34°03' W 119°33'2 3.8
2017-Sep-17 16:30N 34°04' W 119°31'4 7.5
2017-Sep-17 16:01N 34°07' W 119°29'917.4
2017-Sep-17 15:30N 34°12' W 119°20'4 8.4
2017-Sep-17 15:00N 34°15' W 119°16'0 0.0
2017-Sep-17 14:30N 34°15' W 119°16'0 0.0
2017-Sep-17 14:00N 34°15' W 119°16'0 0.0
2017-Sep-17 13:30N 34°15' W 119°16'0 0.0
2017-Sep-17 13:00N 34°15' W 119°16'0 0.0
2017-Sep-17 12:30N 34°15' W 119°16'0 0.0
2017-Sep-17 12:00N 34°15' W 119°16'0 0.0
2017-Sep-17 11:30N 34°15' W 119°16'0 0.0
2017-Sep-17 11:00N 34°15' W 119°16'0 0.0
2017-Sep-17 10:30N 34°15' W 119°16'0 0.0
2017-Sep-17 10:00N 34°15' W 119°16'0 0.0
2017-Sep-17 09:30N 34°15' W 119°16'0 0.0
2017-Sep-17 09:00N 34°15' W 119°16'0 0.0
2017-Sep-17 08:30N 34°15' W 119°16'0 0.0
2017-Sep-17 08:00N 34°15' W 119°16'0 0.0
2017-Sep-17 07:30N 34°15' W 119°16'0 0.0
2017-Sep-17 07:00N 34°15' W 119°16'0 0.0
2017-Sep-17 06:30N 34°15' W 119°16'0 0.0
2017-Sep-17 06:00N 34°15' W 119°16'0 0.0
2017-Sep-17 05:30N 34°15' W 119°16'0 0.0
2017-Sep-17 05:00N 34°15' W 119°16'0 0.0
2017-Sep-17 04:30N 34°15' W 119°16'0 0.0
2017-Sep-17 04:00N 34°15' W 119°16'0 0.0
2017-Sep-17 03:30N 34°15' W 119°16'0 0.0
2017-Sep-17 03:00N 34°15' W 119°16'0 0.0
2017-Sep-17 02:30N 34°15' W 119°16'0 0.0
2017-Sep-17 02:00N 34°15' W 119°16'0 0.0
2017-Sep-17 01:30N 34°15' W 119°16'1 2.2
2017-Sep-17 01:00N 34°14' W 119°17'816.4
2017-Sep-17 00:30N 34°09' W 119°25'816.8
2017-Sep-17 00:00N 34°04' W 119°32'1 1.9
2017-Sep-16 23:29N 34°03' W 119°33'511.5
2017-Sep-16 23:00N 34°02' W 119°40'1 2.3
2017-Sep-16 22:31N 34°01' W 119°41'510.1
2017-Sep-16 22:00N 34°03' W 119°35'2 3.6
2017-Sep-16 21:30N 34°03' W 119°33'0 0.0
2017-Sep-16 21:00N 34°03' W 119°33'2 3.1
2017-Sep-16 20:30N 34°04' W 119°32'4 8.1
2017-Sep-16 20:00N 34°06' W 119°28'917.7
2017-Sep-16 19:30N 34°12' W 119°20'4 8.3
2017-Sep-16 19:00N 34°15' W 119°16'0 0.0
2017-Sep-16 18:30N 34°15' W 119°16'0 0.5
2017-Sep-16 18:00N 34°14' W 119°16'510.6
2017-Sep-16 17:30N 34°12' W 119°21'1120.8
2017-Sep-16 16:59N 34°05' W 119°31'3 5.3
2017-Sep-16 16:30N 34°03' W 119°33'612.5
2017-Sep-16 16:00N 34°07' W 119°28'1017.8
2017-Sep-16 15:27N 34°13' W 119°18'3 5.6
2017-Sep-16 15:00N 34°15' W 119°16'0 0.0
2017-Sep-16 14:30N 34°15' W 119°16'0 0.0
2017-Sep-16 14:00N 34°15' W 119°16'0 0.0
2017-Sep-16 13:30N 34°15' W 119°16'0 0.0
2017-Sep-16 13:00N 34°15' W 119°16'0 0.0
2017-Sep-16 12:29N 34°15' W 119°16'0 0.0
2017-Sep-16 12:00N 34°15' W 119°16'0 0.0
2017-Sep-16 11:30N 34°15' W 119°16'0 0.0
2017-Sep-16 11:00N 34°15' W 119°16'0 0.0
2017-Sep-16 10:30N 34°15' W 119°16'0 0.0
2017-Sep-16 10:00N 34°15' W 119°16'0 0.0
2017-Sep-16 09:30N 34°15' W 119°16'0 0.0
2017-Sep-16 09:00N 34°15' W 119°16'0 0.0
2017-Sep-16 08:30N 34°15' W 119°16'0 0.0
2017-Sep-16 08:00N 34°15' W 119°16'0 0.0
2017-Sep-16 07:30N 34°15' W 119°16'0 0.0
2017-Sep-16 07:00N 34°15' W 119°16'0 0.0
2017-Sep-16 06:30N 34°15' W 119°16'0 0.0
2017-Sep-16 06:00N 34°15' W 119°16'0 0.0
2017-Sep-16 05:30N 34°15' W 119°16'0 0.0
2017-Sep-16 04:58N 34°15' W 119°16'0 0.0
2017-Sep-16 04:24N 34°15' W 119°16'0 0.0
2017-Sep-16 03:58N 34°15' W 119°16'0 0.0
2017-Sep-16 03:30N 34°15' W 119°16'0 0.0
2017-Sep-16 02:56N 34°15' W 119°16'0 0.0
2017-Sep-16 02:30N 34°15' W 119°16'0 0.0
2017-Sep-16 01:59N 34°15' W 119°16'0 0.0
2017-Sep-16 01:30N 34°15' W 119°16'0 0.0
2017-Sep-16 00:58N 34°15' W 119°16'0 0.0
2017-Sep-16 00:28N 34°15' W 119°16'1 1.3
2017-Sep-16 00:01N 34°15' W 119°17'917.2
2017-Sep-15 23:30N 34°09' W 119°25'917.7
2017-Sep-15 23:00N 34°03' W 119°33'0 0.9
2017-Sep-15 22:30N 34°03' W 119°33'0 0.1
2017-Sep-15 22:01N 34°03' W 119°33'1 2.6
2017-Sep-15 21:27N 34°02' W 119°32'0 0.0
2017-Sep-15 21:00N 34°02' W 119°32'0 0.0
2017-Sep-15 20:30N 34°02' W 119°32'0 0.0
2017-Sep-15 20:00N 34°02' W 119°32'0 0.0
2017-Sep-15 19:30N 34°02' W 119°32'0 0.0
2017-Sep-15 18:59N 34°02' W 119°32'0 0.0
2017-Sep-15 18:28N 34°02' W 119°32'2 3.2
2017-Sep-15 18:00N 34°03' W 119°33'0 0.1
2017-Sep-15 17:30N 34°03' W 119°33'715.1
2017-Sep-15 17:00N 34°07' W 119°26'915.7
2017-Sep-15 16:28N 34°13' W 119°18'3 5.4
2017-Sep-15 15:59N 34°15' W 119°16'0 0.0
2017-Sep-15 15:28N 34°15' W 119°16'  

Dump ship's entire track history